Time;durP1;ratioP1;P1;durP2;ratioP2;P2;SDS_P1;SDS_P2;PMS_P1;PMS_P2;Temp;Humidity;BMP_temperature;BMP_pressure;BME280_temperature;BME280_humidity;BME280_pressure;Samples;Min_cycle;Max_cycle;Signal;HPM_P1;HPM_P2
2023/04/03 00:01:23;;;;;;;0.50;0.50;;;2.90;99.90;;;;;;4422199;32;20069;-70
2023/04/03 00:03:48;;;;;;;0.30;0.30;;;2.90;99.90;;;;;;4423156;32;20073;-69
2023/04/03 00:06:14;;;;;;;0.50;0.50;;;2.90;99.90;;;;;;4424455;32;20093;-70
2023/04/03 00:08:40;;;;;;;0.40;0.40;;;2.90;99.90;;;;;;4422902;32;20105;-71
2023/04/03 00:11:06;;;;;;;0.30;0.30;;;2.80;99.90;;;;;;4421562;32;20061;-70
2023/04/03 00:13:33;;;;;;;0.50;0.50;;;2.90;99.90;;;;;;4424175;32;20073;-73
2023/04/03 00:15:59;;;;;;;2.60;1.05;;;2.80;99.90;;;;;;4423470;32;20147;-70
2023/04/03 00:18:25;;;;;;;0.40;0.40;;;2.80;99.90;;;;;;4424681;32;20081;-70
2023/04/03 00:20:50;;;;;;;0.40;0.40;;;2.70;99.90;;;;;;4423633;32;20069;-71
2023/04/03 00:23:16;;;;;;;0.30;0.30;;;2.70;99.90;;;;;;4424149;32;20081;-70
2023/04/03 00:25:42;;;;;;;0.50;0.50;;;2.70;99.90;;;;;;4423327;32;20082;-70
2023/04/03 00:28:08;;;;;;;1.52;0.55;;;2.70;99.90;;;;;;4421250;32;20499;-70
2023/04/03 00:30:34;;;;;;;0.73;0.73;;;2.80;99.90;;;;;;4423347;32;20634;-70
2023/04/03 00:33:00;;;;;;;0.77;0.77;;;2.70;99.90;;;;;;4421725;32;20086;-70
2023/04/03 00:35:26;;;;;;;0.30;0.30;;;2.80;99.90;;;;;;4424433;32;20078;-72
2023/04/03 00:37:52;;;;;;;0.30;0.30;;;2.90;99.90;;;;;;4424288;32;20077;-70
2023/04/03 00:40:18;;;;;;;0.43;0.43;;;2.80;99.90;;;;;;4423529;32;20131;-73
2023/04/03 00:42:46;;;;;;;0.60;0.60;;;2.80;99.90;;;;;;4422911;32;20069;-72
2023/04/03 00:45:25;;;;;;;0.40;0.40;;;2.80;99.90;;;;;;4423006;32;20117;-71
2023/04/03 00:47:51;;;;;;;0.30;0.30;;;2.80;99.90;;;;;;4423143;32;20533;-72
2023/04/03 00:50:17;;;;;;;1.50;1.40;;;2.80;99.90;;;;;;4423247;32;20069;-71
2023/04/03 00:52:46;;;;;;;0.40;0.40;;;2.70;99.90;;;;;;4423957;32;20511;-72
2023/04/03 00:55:14;;;;;;;5.87;2.28;;;2.70;99.90;;;;;;4422476;32;20124;-71
2023/04/03 00:57:40;;;;;;;0.30;0.30;;;2.70;99.90;;;;;;4419554;32;20855;-72
2023/04/03 01:00:09;;;;;;;0.30;0.30;;;2.80;99.90;;;;;;4422935;32;20326;-72
2023/04/03 01:02:35;;;;;;;0.30;0.30;;;2.80;99.90;;;;;;4424381;32;20088;-73
2023/04/03 01:05:01;;;;;;;0.37;0.37;;;2.80;99.90;;;;;;4421955;32;20576;-73
2023/04/03 01:07:30;;;;;;;1.23;1.12;;;2.70;99.90;;;;;;4426222;32;20065;-71
2023/04/03 01:10:00;;;;;;;0.40;0.40;;;2.70;99.90;;;;;;4420245;32;20086;-72
2023/04/03 01:12:28;;;;;;;0.40;0.40;;;2.70;99.90;;;;;;4423833;32;20509;-72
2023/04/03 01:14:56;;;;;;;0.40;0.40;;;2.60;99.90;;;;;;4420189;32;20484;-72
2023/04/03 01:17:36;;;;;;;0.50;0.50;;;2.60;99.90;;;;;;4424062;32;20497;-71
2023/04/03 01:20:35;;;;;;;0.43;0.43;;;2.60;99.90;;;;;;4424485;32;20073;-71
2023/04/03 01:23:16;;;;;;;1.02;0.68;;;2.60;99.90;;;;;;4412830;32;20460;-74
2023/04/03 01:25:47;;;;;;;0.32;0.32;;;2.70;99.90;;;;;;4423880;32;20107;-71
2023/04/03 01:28:18;;;;;;;3.37;1.85;;;2.60;99.90;;;;;;4423877;32;20101;-72
2023/04/03 01:31:06;;;;;;;0.50;0.50;;;2.60;99.90;;;;;;4421866;32;20065;-72
2023/04/03 01:33:32;;;;;;;1.20;0.93;;;2.70;99.90;;;;;;4410838;32;20082;-74
2023/04/03 01:35:58;;;;;;;0.32;0.32;;;2.60;99.90;;;;;;4421434;32;20081;-71
2023/04/03 01:38:24;;;;;;;1.10;0.52;;;2.60;99.90;;;;;;4417735;32;20090;-73
2023/04/03 01:40:49;;;;;;;0.40;0.40;;;2.70;99.90;;;;;;4423155;32;20883;-73
2023/04/03 01:43:15;;;;;;;0.40;0.40;;;2.60;99.90;;;;;;4422589;32;20085;-69
2023/04/03 01:45:41;;;;;;;0.37;0.37;;;2.40;99.90;;;;;;4422350;32;20093;-71
2023/04/03 01:48:06;;;;;;;0.30;0.30;;;2.40;99.90;;;;;;4422082;32;20135;-71
2023/04/03 01:50:32;;;;;;;0.32;0.32;;;2.50;99.90;;;;;;4420566;32;20081;-72
2023/04/03 01:52:57;;;;;;;2.62;1.42;;;2.50;99.90;;;;;;4420935;32;20120;-74
2023/04/03 01:55:23;;;;;;;0.45;0.45;;;2.50;99.90;;;;;;4420349;32;20069;-71
2023/04/03 01:57:48;;;;;;;0.40;0.40;;;2.50;99.90;;;;;;4421792;32;20086;-71
2023/04/03 02:00:14;;;;;;;0.30;0.30;;;2.60;99.90;;;;;;4422070;32;20220;-74
2023/04/03 02:02:40;;;;;;;1.33;1.00;;;2.50;99.90;;;;;;4422130;32;20102;-72
2023/04/03 02:05:06;;;;;;;0.57;0.57;;;2.50;99.90;;;;;;4422346;32;20069;-71
2023/04/03 02:07:31;;;;;;;0.32;0.32;;;2.60;99.90;;;;;;4423252;32;20069;-70
2023/04/03 02:09:57;;;;;;;0.40;0.40;;;2.50;99.90;;;;;;4423139;32;20086;-74
2023/04/03 02:12:22;;;;;;;0.40;0.40;;;2.50;99.90;;;;;;4423273;32;20434;-72
2023/04/03 02:14:48;;;;;;;0.40;0.40;;;2.40;99.90;;;;;;4421433;32;20450;-70
2023/04/03 02:17:13;;;;;;;0.68;0.68;;;2.40;99.90;;;;;;4423405;32;20069;-71
2023/04/03 02:19:39;;;;;;;0.40;0.40;;;2.30;99.90;;;;;;4421578;32;20109;-71
2023/04/03 02:22:05;;;;;;;0.35;0.35;;;2.30;99.90;;;;;;4424184;32;20081;-71
2023/04/03 02:24:31;;;;;;;0.20;0.20;;;2.30;99.90;;;;;;4422791;32;20072;-71
2023/04/03 02:26:57;;;;;;;1.12;0.82;;;2.30;99.90;;;;;;4421628;32;20457;-71
2023/04/03 02:29:23;;;;;;;0.35;0.35;;;2.30;99.90;;;;;;4423253;32;20162;-71
2023/04/03 02:31:50;;;;;;;0.35;0.35;;;2.30;99.90;;;;;;4422460;32;20447;-71
2023/04/03 02:34:15;;;;;;;0.70;0.47;;;2.40;99.90;;;;;;4422396;32;20140;-71
2023/04/03 02:36:41;;;;;;;0.40;0.40;;;2.30;99.90;;;;;;4421688;32;20085;-71
2023/04/03 02:39:07;;;;;;;0.93;0.93;;;2.30;99.90;;;;;;4422530;32;20069;-71
2023/04/03 02:41:35;;;;;;;0.60;0.60;;;2.30;99.90;;;;;;4423693;32;20116;-72
2023/04/03 02:44:02;;;;;;;0.77;0.77;;;2.20;99.90;;;;;;4421662;32;20078;-71
2023/04/03 02:46:27;;;;;;;0.40;0.40;;;2.20;99.90;;;;;;4420965;32;20164;-74
2023/04/03 02:48:53;;;;;;;0.35;0.35;;;2.10;99.90;;;;;;4419968;32;20120;-72
2023/04/03 02:51:18;;;;;;;0.30;0.30;;;2.20;99.90;;;;;;4421960;32;20081;-70
2023/04/03 02:53:44;;;;;;;1.65;1.40;;;2.20;99.90;;;;;;4422678;32;20512;-73
2023/04/03 02:56:09;;;;;;;0.40;0.40;;;2.40;99.90;;;;;;4417572;32;20093;-75
2023/04/03 02:58:35;;;;;;;2.92;1.75;;;2.30;99.90;;;;;;4421717;32;20085;-70
2023/04/03 03:01:01;;;;;;;3.72;1.75;;;2.30;99.90;;;;;;4422138;32;20098;-70
2023/04/03 03:03:26;;;;;;;0.30;0.30;;;2.20;99.90;;;;;;4419983;32;20092;-70
2023/04/03 03:06:02;;;;;;;0.40;0.40;;;2.20;99.90;;;;;;4423294;32;20081;-70
2023/04/03 03:08:28;;;;;;;0.40;0.40;;;2.10;99.90;;;;;;4420339;32;20090;-70
2023/04/03 03:10:53;;;;;;;0.40;0.40;;;2.10;99.90;;;;;;4423264;32;20462;-72
2023/04/03 03:13:19;;;;;;;1.33;1.23;;;2.20;99.90;;;;;;4424550;32;20097;-74
2023/04/03 03:15:44;;;;;;;0.40;0.40;;;2.20;99.90;;;;;;4420002;32;20074;-72
2023/04/03 03:18:10;;;;;;;1.48;1.20;;;2.20;99.90;;;;;;4419253;32;20113;-70
2023/04/03 03:20:35;;;;;;;0.50;0.50;;;2.20;99.90;;;;;;4422366;32;20101;-71
2023/04/03 03:23:00;;;;;;;0.40;0.40;;;2.30;99.90;;;;;;4418820;32;20159;-71
2023/04/03 03:25:26;;;;;;;0.40;0.40;;;2.20;99.90;;;;;;4419402;32;20061;-73
2023/04/03 03:27:51;;;;;;;0.30;0.30;;;2.20;99.90;;;;;;4419463;32;20121;-70
2023/04/03 03:30:17;;;;;;;0.40;0.40;;;2.00;99.90;;;;;;4421454;32;20086;-70
2023/04/03 03:32:42;;;;;;;0.45;0.45;;;2.20;99.90;;;;;;4420933;32;20086;-73
2023/04/03 03:35:08;;;;;;;0.40;0.40;;;2.10;99.90;;;;;;4419668;32;20117;-70
2023/04/03 03:37:34;;;;;;;0.50;0.50;;;2.20;99.90;;;;;;4421885;32;20674;-72
2023/04/03 03:39:59;;;;;;;0.37;0.37;;;2.10;99.90;;;;;;4420808;32;20078;-70
2023/04/03 03:42:25;;;;;;;0.40;0.40;;;2.10;99.90;;;;;;4422310;32;20089;-72
2023/04/03 03:44:51;;;;;;;0.47;0.47;;;2.00;99.90;;;;;;4422212;32;21308;-70
2023/04/03 03:47:17;;;;;;;0.40;0.40;;;2.00;99.90;;;;;;4419901;32;20065;-72
2023/04/03 03:49:42;;;;;;;0.30;0.30;;;2.00;99.90;;;;;;4421637;32;20074;-71
2023/04/03 03:52:10;;;;;;;0.40;0.40;;;1.90;99.90;;;;;;4423818;32;20459;-71
2023/04/03 03:54:36;;;;;;;0.30;0.30;;;1.90;99.90;;;;;;4421991;32;20117;-72
2023/04/03 03:57:01;;;;;;;0.35;0.35;;;1.80;99.90;;;;;;4418432;32;20097;-71
2023/04/03 03:59:27;;;;;;;1.05;0.65;;;1.80;99.90;;;;;;4419702;32;20085;-73
2023/04/03 04:01:52;;;;;;;0.40;0.40;;;1.90;99.90;;;;;;4420213;32;20078;-71
2023/04/03 04:04:18;;;;;;;0.43;0.43;;;2.00;99.90;;;;;;4420709;32;20081;-70
2023/04/03 04:06:43;;;;;;;5.65;1.55;;;2.10;99.90;;;;;;4422285;32;20061;-73
2023/04/03 04:09:09;;;;;;;0.60;0.60;;;2.00;99.90;;;;;;4421617;32;20057;-73
2023/04/03 04:11:35;;;;;;;0.45;0.45;;;1.90;99.90;;;;;;4423450;32;20422;-72
2023/04/03 04:14:00;;;;;;;0.35;0.35;;;1.90;99.90;;;;;;4420489;32;20065;-73
2023/04/03 04:16:26;;;;;;;0.30;0.30;;;1.80;99.90;;;;;;4422963;32;20188;-73
2023/04/03 04:18:51;;;;;;;2.92;1.15;;;1.90;99.90;;;;;;4418391;32;20099;-71
2023/04/03 04:21:16;;;;;;;0.40;0.40;;;1.80;99.90;;;;;;4422616;32;20470;-72
2023/04/03 04:23:42;;;;;;;0.52;0.50;;;1.70;99.90;;;;;;4422921;32;20073;-72
2023/04/03 04:26:07;;;;;;;0.70;0.70;;;1.60;99.90;;;;;;4421085;32;20513;-72
2023/04/03 04:28:33;;;;;;;0.50;0.50;;;1.60;99.90;;;;;;4420178;32;20120;-72
2023/04/03 04:30:58;;;;;;;0.85;0.85;;;1.60;99.90;;;;;;4418345;32;20086;-72
2023/04/03 04:33:24;;;;;;;0.37;0.37;;;1.50;99.90;;;;;;4420785;32;20077;-71
2023/04/03 04:35:49;;;;;;;0.40;0.40;;;1.40;99.90;;;;;;4421792;32;20132;-73
2023/04/03 04:38:15;;;;;;;0.30;0.30;;;1.30;99.90;;;;;;4419629;32;21217;-71
2023/04/03 04:40:41;;;;;;;0.30;0.30;;;1.30;99.90;;;;;;4419404;32;20101;-71
2023/04/03 04:43:07;;;;;;;0.50;0.50;;;1.20;99.90;;;;;;4422512;32;20536;-71
2023/04/03 04:45:33;;;;;;;0.40;0.40;;;1.20;99.90;;;;;;4421304;32;20508;-71
2023/04/03 04:47:58;;;;;;;0.57;0.57;;;1.30;99.90;;;;;;4420793;32;20065;-72
2023/04/03 04:50:24;;;;;;;0.50;0.50;;;1.30;99.90;;;;;;4423670;32;20064;-71
2023/04/03 04:52:49;;;;;;;0.40;0.40;;;1.30;99.90;;;;;;4422575;32;20466;-71
2023/04/03 04:55:15;;;;;;;0.50;0.50;;;1.30;99.90;;;;;;4423773;32;20094;-70
2023/04/03 04:57:40;;;;;;;0.75;0.75;;;1.30;99.90;;;;;;4421462;32;21416;-71
2023/04/03 05:00:06;;;;;;;0.70;0.70;;;1.30;99.90;;;;;;4421174;32;20476;-72
2023/04/03 05:02:32;;;;;;;5.53;1.62;;;1.40;99.90;;;;;;4420442;32;20101;-72
2023/04/03 05:04:58;;;;;;;2.50;1.85;;;1.50;99.90;;;;;;4424958;32;20123;-75
2023/04/03 05:07:24;;;;;;;0.47;0.47;;;1.60;99.90;;;;;;4420065;32;20534;-71
2023/04/03 05:09:49;;;;;;;3.85;0.75;;;1.50;99.90;;;;;;4421345;32;20073;-70
2023/04/03 05:12:15;;;;;;;0.50;0.50;;;1.70;99.90;;;;;;4420839;32;20073;-69
2023/04/03 05:14:41;;;;;;;0.40;0.40;;;1.60;99.90;;;;;;4421095;32;20197;-71
2023/04/03 05:17:06;;;;;;;0.50;0.50;;;1.70;99.90;;;;;;4423734;32;20121;-73
2023/04/03 05:19:32;;;;;;;0.30;0.30;;;1.80;99.90;;;;;;4425027;32;20108;-71
2023/04/03 05:21:57;;;;;;;0.40;0.40;;;1.90;99.90;;;;;;4424828;32;20094;-70
2023/04/03 05:24:23;;;;;;;0.40;0.40;;;1.90;99.90;;;;;;4422055;32;20555;-71
2023/04/03 05:26:48;;;;;;;0.40;0.40;;;1.90;99.90;;;;;;4421741;32;20389;-70
2023/04/03 05:29:14;;;;;;;0.85;0.85;;;2.10;99.90;;;;;;4420903;32;20073;-73
2023/04/03 05:31:39;;;;;;;0.40;0.40;;;2.20;99.90;;;;;;4421849;32;20070;-71
2023/04/03 05:34:05;;;;;;;0.55;0.55;;;2.20;99.90;;;;;;4423015;32;20103;-73
2023/04/03 05:36:31;;;;;;;1.65;1.20;;;2.10;99.90;;;;;;4423395;32;20152;-71
2023/04/03 05:38:56;;;;;;;0.40;0.40;;;2.00;99.90;;;;;;4424918;32;20544;-72
2023/04/03 05:41:22;;;;;;;0.45;0.45;;;2.00;99.90;;;;;;4423230;32;20397;-71
2023/04/03 05:43:48;;;;;;;0.40;0.40;;;2.00;99.90;;;;;;4422593;32;20077;-71
2023/04/03 05:46:15;;;;;;;0.60;0.55;;;2.10;99.90;;;;;;4423599;32;20152;-72
2023/04/03 05:48:41;;;;;;;0.32;0.32;;;2.30;99.90;;;;;;4422444;32;20138;-72
2023/04/03 05:51:12;;;;;;;0.30;0.30;;;2.50;99.90;;;;;;4424221;32;20058;-73
2023/04/03 05:53:38;;;;;;;0.40;0.40;;;2.60;99.90;;;;;;4424411;32;20074;-72
2023/04/03 05:56:04;;;;;;;0.40;0.40;;;2.50;99.90;;;;;;4423535;32;20066;-72
2023/04/03 05:58:29;;;;;;;0.40;0.40;;;2.60;99.90;;;;;;4421001;32;20085;-72
2023/04/03 06:00:55;;;;;;;0.50;0.50;;;2.50;99.90;;;;;;4420016;32;20132;-72
2023/04/03 06:03:21;;;;;;;0.30;0.30;;;2.50;99.90;;;;;;4422527;32;20090;-72
2023/04/03 06:05:46;;;;;;;0.40;0.40;;;2.60;99.90;;;;;;4422678;32;20082;-75
2023/04/03 06:08:12;;;;;;;0.40;0.40;;;2.60;99.90;;;;;;4420925;32;20101;-72
2023/04/03 06:10:38;;;;;;;0.40;0.40;;;2.70;99.90;;;;;;4421524;32;20157;-75
2023/04/03 06:13:03;;;;;;;0.37;0.37;;;2.70;99.90;;;;;;4422223;32;20093;-74
2023/04/03 06:15:29;;;;;;;1.10;0.80;;;2.80;99.90;;;;;;4423957;32;20148;-71
2023/04/03 06:17:54;;;;;;;0.30;0.30;;;2.80;99.90;;;;;;4421289;32;20069;-70
2023/04/03 06:20:20;;;;;;;0.45;0.45;;;2.80;99.90;;;;;;4422105;32;20069;-72
2023/04/03 06:22:46;;;;;;;0.30;0.30;;;2.80;99.90;;;;;;4424058;32;20426;-71
2023/04/03 06:25:12;;;;;;;0.40;0.40;;;2.90;99.90;;;;;;4423353;32;20065;-71
2023/04/03 06:27:38;;;;;;;0.47;0.47;;;3.00;99.90;;;;;;4421520;32;20102;-72
2023/04/03 06:30:05;;;;;;;0.60;0.60;;;3.00;99.90;;;;;;4420592;32;20120;-73
2023/04/03 06:32:30;;;;;;;0.40;0.40;;;3.20;99.90;;;;;;4422549;32;20078;-70
2023/04/03 06:34:57;;;;;;;7.37;1.83;;;3.20;99.90;;;;;;4425149;32;20081;-72
2023/04/03 06:37:25;;;;;;;0.40;0.40;;;3.20;99.90;;;;;;4423718;32;20084;-72
2023/04/03 06:39:51;;;;;;;0.57;0.57;;;3.20;99.90;;;;;;4420181;32;20564;-70
2023/04/03 06:42:17;;;;;;;0.95;0.95;;;3.30;99.90;;;;;;4422223;32;20141;-71
2023/04/03 06:44:43;;;;;;;0.32;0.32;;;3.30;99.90;;;;;;4420493;32;20466;-70
2023/04/03 06:47:12;;;;;;;0.40;0.40;;;3.30;99.90;;;;;;4408798;32;20132;-70
2023/04/03 06:49:38;;;;;;;0.30;0.30;;;3.30;99.90;;;;;;4422543;32;20061;-71
2023/04/03 06:52:05;;;;;;;0.40;0.40;;;3.40;99.90;;;;;;4423486;32;20580;-70
2023/04/03 06:54:30;;;;;;;0.80;0.80;;;3.30;99.90;;;;;;4422030;32;20086;-70
2023/04/03 06:56:56;;;;;;;0.43;0.43;;;3.40;99.90;;;;;;4423173;32;20064;-71
2023/04/03 06:59:22;;;;;;;0.30;0.30;;;3.50;99.90;;;;;;4421112;32;20461;-73
2023/04/03 07:01:48;;;;;;;0.30;0.30;;;3.60;99.90;;;;;;4422006;32;20081;-73
2023/04/03 07:04:14;;;;;;;0.30;0.30;;;3.60;99.90;;;;;;4420982;32;20166;-72
2023/04/03 07:06:40;;;;;;;0.40;0.40;;;3.60;99.90;;;;;;4422087;32;20093;-71
2023/04/03 07:09:05;;;;;;;0.40;0.40;;;3.70;99.90;;;;;;4422500;32;20070;-71
2023/04/03 07:11:31;;;;;;;0.30;0.30;;;3.70;99.90;;;;;;4419974;32;20093;-72
2023/04/03 07:13:57;;;;;;;0.50;0.50;;;3.70;99.90;;;;;;4422906;32;20077;-72
2023/04/03 07:16:22;;;;;;;0.30;0.30;;;3.90;99.90;;;;;;4422320;32;20117;-71
2023/04/03 07:18:48;;;;;;;0.32;0.32;;;3.90;99.90;;;;;;4418968;32;20074;-71
2023/04/03 07:21:14;;;;;;;0.32;0.32;;;4.00;99.90;;;;;;4422131;32;20417;-72
2023/04/03 07:23:39;;;;;;;0.50;0.50;;;4.10;99.90;;;;;;4422384;32;20077;-71
2023/04/03 07:26:06;;;;;;;0.30;0.30;;;4.30;99.90;;;;;;4411225;32;20084;-73
2023/04/03 07:28:32;;;;;;;0.30;0.30;;;4.40;99.90;;;;;;4418087;32;20085;-70
2023/04/03 07:31:04;;;;;;;0.40;0.40;;;4.40;99.90;;;;;;4422553;32;20114;-72
2023/04/03 07:33:30;;;;;;;53.50;1.65;;;4.30;99.90;;;;;;4420344;32;20461;-70
2023/04/03 07:35:56;;;;;;;0.70;0.70;;;4.40;99.90;;;;;;4423080;32;20551;-69
2023/04/03 07:38:28;;;;;;;0.30;0.30;;;4.50;99.90;;;;;;4421191;32;20069;-71
2023/04/03 07:40:54;;;;;;;0.37;0.37;;;4.60;99.90;;;;;;4406941;32;20391;-72
2023/04/03 07:43:21;;;;;;;0.55;0.55;;;4.60;99.90;;;;;;4422808;32;20069;-72
2023/04/03 07:45:50;;;;;;;0.40;0.40;;;4.60;99.90;;;;;;4421916;32;20073;-70
2023/04/03 07:48:17;;;;;;;0.30;0.30;;;4.70;99.90;;;;;;4419697;32;20078;-70
2023/04/03 07:50:44;;;;;;;0.40;0.40;;;4.80;99.90;;;;;;4421631;32;20070;-72
2023/04/03 07:53:09;;;;;;;0.40;0.40;;;4.70;99.90;;;;;;4420640;32;20069;-71
2023/04/03 07:55:42;;;;;;;0.55;0.55;;;4.70;99.90;;;;;;4419911;32;20941;-74
2023/04/03 07:58:10;;;;;;;10.85;2.15;;;4.60;99.90;;;;;;4421252;32;20093;-72
2023/04/03 08:00:36;;;;;;;0.32;0.32;;;4.50;99.90;;;;;;4422805;32;20078;-74
2023/04/03 08:03:01;;;;;;;0.30;0.30;;;4.50;99.90;;;;;;4419476;32;20093;-72
2023/04/03 08:05:27;;;;;;;0.40;0.40;;;4.60;99.90;;;;;;4422469;32;20088;-71
2023/04/03 08:07:52;;;;;;;0.40;0.40;;;4.50;99.90;;;;;;4420625;32;20085;-71
2023/04/03 08:10:18;;;;;;;0.37;0.37;;;4.40;99.90;;;;;;4420516;32;20070;-72
2023/04/03 08:12:46;;;;;;;0.55;0.55;;;4.40;99.90;;;;;;4419969;32;20161;-71
2023/04/03 08:15:11;;;;;;;1.30;1.05;;;4.50;99.90;;;;;;4420962;32;20492;-71
2023/04/03 08:17:37;;;;;;;0.77;0.62;;;4.80;99.90;;;;;;4419813;32;20073;-71
2023/04/03 08:20:06;;;;;;;0.45;0.45;;;4.80;99.90;;;;;;4421836;32;20078;-70
2023/04/03 08:22:32;;;;;;;0.40;0.40;;;4.80;99.90;;;;;;4420482;32;20113;-72
2023/04/03 08:24:57;;;;;;;0.37;0.37;;;4.70;99.90;;;;;;4420184;32;20073;-71
2023/04/03 08:27:23;;;;;;;1.80;0.75;;;4.60;99.90;;;;;;4423123;32;20074;-71
2023/04/03 08:29:48;;;;;;;0.40;0.40;;;4.70;99.90;;;;;;4424960;32;20124;-71
2023/04/03 08:32:14;;;;;;;0.40;0.40;;;4.80;99.90;;;;;;4424237;32;20125;-75
2023/04/03 08:34:39;;;;;;;0.32;0.32;;;4.90;99.90;;;;;;4426565;32;20077;-71
2023/04/03 08:37:05;;;;;;;0.30;0.30;;;4.90;99.90;;;;;;4424099;32;20062;-70
2023/04/03 08:39:31;;;;;;;1.08;0.98;;;4.90;99.90;;;;;;4425095;32;20124;-71
2023/04/03 08:42:00;;;;;;;0.93;0.80;;;4.90;99.90;;;;;;4423525;32;20074;-75
2023/04/03 08:44:39;;;;;;;5.57;0.77;;;4.90;99.90;;;;;;4422925;32;20065;-71
2023/04/03 08:47:26;;;;;;;0.30;0.30;;;4.90;99.90;;;;;;4423913;32;20533;-71
2023/04/03 08:49:57;;;;;;;0.32;0.32;;;5.00;99.90;;;;;;4422112;32;20090;-71
2023/04/03 08:52:47;;;;;;;0.73;0.65;;;5.00;99.90;;;;;;4422906;32;20113;-70
2023/04/03 08:55:26;;;;;;;0.40;0.40;;;4.90;99.90;;;;;;4409070;32;20112;-71
2023/04/03 08:58:15;;;;;;;0.30;0.30;;;5.00;99.90;;;;;;4424080;32;20073;-70
2023/04/03 09:00:46;;;;;;;0.30;0.30;;;5.00;99.90;;;;;;4413984;32;20116;-72
2023/04/03 09:03:14;;;;;;;0.55;0.55;;;4.90;99.90;;;;;;4424888;32;20073;-71
2023/04/03 09:05:46;;;;;;;0.28;0.28;;;4.80;99.90;;;;;;4422786;32;20093;-71
2023/04/03 09:08:22;;;;;;;0.40;0.40;;;4.90;99.90;;;;;;4423880;32;20073;-72
2023/04/03 09:10:52;;;;;;;0.30;0.30;;;4.90;99.90;;;;;;4425787;32;20827;-72
2023/04/03 09:13:30;;;;;;;0.30;0.30;;;4.90;99.90;;;;;;4423653;32;20078;-72
2023/04/03 09:15:56;;;;;;;0.30;0.30;;;4.90;99.90;;;;;;4422448;32;20094;-71
2023/04/03 09:18:31;;;;;;;0.32;0.32;;;4.90;99.90;;;;;;4422831;32;20065;-72
2023/04/03 09:21:28;;;;;;;0.40;0.40;;;4.90;99.90;;;;;;4424493;32;20130;-73
2023/04/03 09:24:00;;;;;;;0.30;0.30;;;4.80;99.90;;;;;;4421636;32;20642;-74
2023/04/03 09:26:30;;;;;;;0.40;0.40;;;4.90;99.90;;;;;;4422274;32;20090;-70
2023/04/03 09:29:00;;;;;;;0.40;0.40;;;5.00;99.90;;;;;;4423138;32;20070;-71
2023/04/03 09:31:38;;;;;;;8.57;0.43;;;5.30;99.90;;;;;;4423142;32;20103;-72
2023/04/03 09:34:13;;;;;;;0.30;0.30;;;5.50;99.90;;;;;;4424274;32;20221;-73
2023/04/03 09:36:43;;;;;;;0.30;0.30;;;6.00;99.90;;;;;;4424477;32;20074;-72
2023/04/03 09:39:18;;;;;;;0.37;0.37;;;6.70;99.90;;;;;;4423351;32;20074;-70
2023/04/03 09:41:56;;;;;;;0.22;0.22;;;6.80;99.90;;;;;;4423008;32;20057;-73
2023/04/03 09:44:26;;;;;;;0.47;0.45;;;6.70;99.90;;;;;;4422792;32;20068;-72
2023/04/03 09:46:51;;;;;;;0.75;0.75;;;6.40;99.60;;;;;;4422757;32;20586;-72
2023/04/03 09:49:18;;;;;;;0.30;0.30;;;6.10;99.90;;;;;;4423152;32;20077;-71
2023/04/03 09:51:44;;;;;;;0.30;0.30;;;5.90;99.90;;;;;;4425037;32;20092;-74
2023/04/03 09:54:31;;;;;;;0.30;0.30;;;5.70;99.90;;;;;;4420058;32;20147;-73
2023/04/03 09:57:00;;;;;;;0.30;0.30;;;5.80;99.90;;;;;;4411708;32;20074;-74
2023/04/03 09:59:26;;;;;;;0.40;0.40;;;6.30;99.90;;;;;;4420949;32;20093;-71
2023/04/03 10:02:04;;;;;;;1.65;0.93;;;7.10;99.90;;;;;;4423092;32;20093;-71
2023/04/03 10:04:40;;;;;;;0.60;0.60;;;7.60;99.90;;;;;;4423732;32;20089;-71
2023/04/03 10:07:29;;;;;;;0.30;0.30;;;7.60;97.50;;;;;;4423221;32;20082;-71
2023/04/03 10:09:57;;;;;;;0.40;0.40;;;7.40;97.80;;;;;;4411457;32;20093;-70
2023/04/03 10:12:23;;;;;;;0.85;0.85;;;7.30;97.90;;;;;;4422486;32;20061;-70
2023/04/03 10:15:00;;;;;;;24.02;1.87;;;7.00;98.00;;;;;;4422383;32;20081;-72
2023/04/03 10:17:53;;;;;;;0.60;0.60;;;6.70;98.20;;;;;;4422460;32;20090;-72
2023/04/03 10:20:32;;;;;;;0.30;0.30;;;6.60;99.70;;;;;;4411594;32;20073;-73
2023/04/03 10:23:12;;;;;;;1.12;0.62;;;6.80;99.40;;;;;;4423179;32;20128;-71
2023/04/03 10:26:02;;;;;;;0.35;0.35;;;6.90;99.50;;;;;;4419089;32;20780;-73
2023/04/03 10:28:40;;;;;;;0.40;0.40;;;6.80;99.70;;;;;;4406962;32;20090;-71
2023/04/03 10:31:27;;;;;;;0.50;0.50;;;6.70;99.90;;;;;;4421389;32;20508;-72
2023/04/03 10:34:06;;;;;;;0.30;0.30;;;6.50;99.70;;;;;;4408786;32;20066;-73
2023/04/03 10:36:53;;;;;;;0.22;0.22;;;6.50;99.90;;;;;;4423052;32;20101;-71
2023/04/03 10:39:49;;;;;;;0.45;0.45;;;6.60;99.90;;;;;;4412501;32;20082;-72
2023/04/03 10:42:40;;;;;;;0.40;0.40;;;6.80;99.90;;;;;;4413040;32;20069;-73
2023/04/03 10:45:28;;;;;;;2.90;1.05;;;6.90;99.90;;;;;;4410661;32;20069;-71
2023/04/03 10:48:15;;;;;;;0.30;0.30;;;7.10;98.20;;;;;;4422259;32;20143;-70
2023/04/03 10:50:57;;;;;;;0.47;0.47;;;7.10;98.30;;;;;;4407731;32;20204;-70
2023/04/03 10:53:46;;;;;;;0.40;0.40;;;7.00;97.60;;;;;;4418029;32;20113;-73
2023/04/03 10:56:20;;;;;;;0.30;0.30;;;6.80;98.10;;;;;;4421012;32;20069;-69
2023/04/03 10:58:54;;;;;;;0.30;0.30;;;6.90;98.60;;;;;;4421132;32;20141;-72
2023/04/03 11:01:24;;;;;;;0.30;0.30;;;6.90;98.10;;;;;;4422977;32;20084;-74
2023/04/03 11:03:59;;;;;;;1.77;0.98;;;7.00;98.40;;;;;;4420447;32;20110;-72
2023/04/03 11:06:41;;;;;;;0.30;0.30;;;7.20;97.30;;;;;;4419968;32;20088;-72
2023/04/03 11:09:19;;;;;;;0.30;0.30;;;7.80;97.50;;;;;;4421844;32;20082;-71
2023/04/03 11:11:47;;;;;;;0.30;0.30;;;8.30;95.90;;;;;;4424550;32;20066;-72
2023/04/03 11:14:19;;;;;;;0.30;0.30;;;8.00;95.40;;;;;;4420914;32;20122;-73
2023/04/03 11:16:50;;;;;;;0.30;0.30;;;7.80;96.80;;;;;;4421288;32;21322;-72
2023/04/03 11:19:23;;;;;;;0.30;0.30;;;7.80;96.80;;;;;;4422647;32;20533;-71
2023/04/03 11:21:56;;;;;;;0.40;0.40;;;7.80;97.00;;;;;;4422234;32;20093;-74
2023/04/03 11:24:26;;;;;;;0.20;0.20;;;7.80;96.90;;;;;;4418836;32;20543;-72
2023/04/03 11:26:54;;;;;;;0.30;0.30;;;7.90;96.20;;;;;;4419407;32;20077;-71
2023/04/03 11:29:24;;;;;;;0.52;0.50;;;7.90;96.70;;;;;;4422502;32;20072;-70
2023/04/03 11:32:20;;;;;;;0.40;0.40;;;7.90;96.50;;;;;;4421989;32;20438;-72
2023/04/03 11:34:50;;;;;;;0.30;0.30;;;8.10;96.20;;;;;;4422018;32;20097;-73
2023/04/03 11:37:40;;;;;;;0.30;0.30;;;7.80;96.30;;;;;;4423055;32;20159;-71
2023/04/03 11:40:17;;;;;;;0.95;0.85;;;7.40;96.50;;;;;;4408906;32;20101;-70
2023/04/03 11:42:46;;;;;;;0.60;0.60;;;7.30;97.40;;;;;;4405184;32;20073;-73
2023/04/03 11:45:36;;;;;;;0.30;0.30;;;7.20;97.60;;;;;;4418351;32;119230;-71
2023/04/03 11:48:20;;;;;;;0.63;0.63;;;7.50;97.80;;;;;;4410612;32;20449;-71
2023/04/03 11:50:47;;;;;;;0.32;0.32;;;7.50;98.00;;;;;;4409267;32;20209;-71
2023/04/03 11:53:14;;;;;;;0.50;0.50;;;7.50;98.00;;;;;;4420975;32;20304;-72
2023/04/03 11:55:45;;;;;;;0.30;0.30;;;7.50;98.30;;;;;;4419736;32;20089;-72
2023/04/03 11:58:17;;;;;;;0.40;0.40;;;7.50;97.90;;;;;;4421650;32;20069;-70
2023/04/03 12:00:46;;;;;;;0.20;0.20;;;7.50;98.20;;;;;;4423539;32;20058;-71
2023/04/03 12:03:33;;;;;;;0.40;0.40;;;7.50;98.30;;;;;;4396078;32;20105;-72
2023/04/03 12:06:10;;;;;;;0.20;0.20;;;7.50;98.30;;;;;;4410076;32;20077;-71
2023/04/03 12:08:53;;;;;;;0.30;0.30;;;7.50;98.50;;;;;;4420496;32;20066;-75
2023/04/03 12:11:30;;;;;;;0.57;0.57;;;7.70;97.70;;;;;;4422487;32;20085;-71
2023/04/03 12:13:58;;;;;;;0.32;0.32;;;8.00;97.80;;;;;;4419335;32;20611;-72
2023/04/03 12:16:30;;;;;;;0.30;0.30;;;8.20;98.40;;;;;;4421151;32;20061;-71
2023/04/03 12:19:02;;;;;;;0.30;0.30;;;8.20;97.70;;;;;;4418867;32;20109;-70
2023/04/03 12:21:32;;;;;;;0.30;0.30;;;7.90;97.60;;;;;;4421973;32;20077;-71
2023/04/03 12:24:08;;;;;;;4.03;0.93;;;7.60;98.00;;;;;;4419373;32;20077;-71
2023/04/03 12:27:02;;;;;;;0.32;0.32;;;7.40;98.00;;;;;;4417306;32;20480;-75
2023/04/03 12:29:45;;;;;;;0.88;0.88;;;7.30;98.30;;;;;;4422292;32;20841;-70
2023/04/03 12:32:38;;;;;;;0.30;0.30;;;7.30;98.70;;;;;;4409240;32;20101;-71
2023/04/03 12:35:26;;;;;;;0.30;0.30;;;7.30;98.30;;;;;;4410063;32;20454;-72
2023/04/03 12:38:33;;;;;;;0.40;0.40;;;7.10;98.40;;;;;;4423273;32;20065;-71
2023/04/03 12:41:21;;;;;;;1.10;0.70;;;6.90;98.40;;;;;;4409626;32;20079;-71
2023/04/03 12:44:02;;;;;;;0.30;0.30;;;6.80;99.40;;;;;;4408184;32;20068;-74
2023/04/03 12:46:46;;;;;;;2.40;1.30;;;6.90;99.90;;;;;;4418696;32;20081;-73
2023/04/03 12:49:38;;;;;;;0.32;0.32;;;7.10;99.60;;;;;;4407008;32;20105;-72
2023/04/03 12:52:17;;;;;;;1.20;0.50;;;7.30;99.20;;;;;;4409928;32;20112;-71
2023/04/03 12:54:46;;;;;;;0.30;0.30;;;7.20;99.70;;;;;;4420112;32;20073;-72
2023/04/03 12:57:20;;;;;;;0.28;0.28;;;7.20;99.20;;;;;;4419083;32;20093;-74
2023/04/03 12:59:47;;;;;;;0.30;0.30;;;7.20;99.50;;;;;;4417527;32;20706;-71
2023/04/03 13:02:23;;;;;;;0.30;0.30;;;7.20;99.10;;;;;;4421179;32;20492;-71
2023/04/03 13:04:50;;;;;;;0.30;0.30;;;7.10;99.60;;;;;;4418640;32;20062;-72
2023/04/03 13:07:33;;;;;;;0.22;0.22;;;7.10;98.40;;;;;;4421528;32;20078;-71
2023/04/03 13:10:20;;;;;;;0.40;0.40;;;7.10;98.40;;;;;;4418282;32;20065;-71
2023/04/03 13:12:52;;;;;;;0.37;0.37;;;7.10;97.10;;;;;;4406863;32;20089;-70